Página principal
METAR-TAF:

METAR-TAF

Aeroportos :

Jidá, Arábia Saudita

Aeroporto Internacional Rei Abdulaziz

latitude: 21-42N, longitude: 039-11E, altura: 15 m

Observação actual do tempo

O boletim foi feito há 22 minutos, às 23:00 UTC
Vento 4 kt de norte
Temperatura 22°C
Humidade 65%
Pressão 1017 hPa
Visibilidade 10 km ou mais
sem nuvens abaixo de 1500 metros e sem cumulonimbus

METAR: OEJN 122300Z 35004KT CAVOK 22/15 Q1017 NOSIG

Hora: 02:22 (23:22 UTC)

Previsão

O boletim foi feito há 6 horas e 22 minutos, às 17:00 UTC
Previsão válida de 12 às 18 UTC a 13 às 24 UTC
Vento 7 kt de nor-nordeste
Visibilidade: 7000 m
Céu limpo
Tornando-se
de 13 às 00 UTC a 13 às 02 UTC
Vento 10 kt de es-sudeste
Temporariamente
de 13 às 00 UTC a 13 às 05 UTC
Visibilidade: 4000 m
neblina

TAF: OEJN 121700Z 1218/1324 02007KT 7000 SKC BECMG 1300/1302 12010KT TEMPO 1300/1305 4000 BR

Observações e previsões do tempo de mais de 4000 aeroportos (mensagens METAR e TAF).

As estações disponíveis são os pontos amarelos e vermelhos sobre o mapa.

Mova o rato sobre o mapa para ver o nome da estação.

Depois clique no ponto para visualizar as observações e previsões meteorológicas.

Para alterar o mapa : clique nos botões verdes com uma cruz preta para aumentar o zoom; no botão verde com uma pitada de zoom; ou nas setas verdes para mapas adjacentes.


METAR-TAF: